Hackberry, AZ (86411)

10:14 PM MST on August 28, 2014 (GMT -0700)
Cedar Hills | Change Station
CLOSE
Current Station
Personal Weather Station
Location: Kingman, AZ
Elevation: 3980 ft
Nearby Weather Stations

Elev 3980 ft 35.20 °N, 113.73 °W | Updated 19 seconds ago

Clear
Clear
73.9 °F
Feels Like 77 °F
N
0.0
Wind Variable Wind from West
Gusts 0.0 mph

Today
High -- | Low -- °F
--% Chance of Precip.
Yesterday
High -- | Low -- °F
Precip. -- in
6:04 AM 7:07 PM
Waxing Crescent, 12% visible
Pressure 29.82 in
Visibility 10.0 miles
Clouds Clear
Heat Index 77 °F
Dew Point 40 °F
Humidity 29%
Rainfall 0.00 in
Snow Depth Not available.
UV 0.0 out of 12
Pollen 6.50 out of 12
Air Quality Not available.
Flu Activity Not available.
METAR KIGM 290451Z AUTO 14005KT 10SM CLR 22/01 A3003 RMK AO2 SLP098 T02170011

More Conditions Fewer Conditions

Pressure 29.82 in
Visibility 10.0 miles
Clouds Clear
Heat Index 77 °F
Dew Point 40 °F
Humidity 29%
Rainfall 0.00 in
Snow Depth Not available.
UV 0.0 out of 12
Pollen 6.50 out of 12
Air Quality Not available.
Flu Activity Not available.
METAR KIGM 290451Z AUTO 14005KT 10SM CLR 22/01 A3003 RMK AO2 SLP098 T02170011

More Conditions Fewer Conditions

10-Day Weather Forecast

Almanac

Astronomy

Aug. 28, 2014 Rise Set
Actual Time 6:04 AM MST 7:07 PM MST
Civil Twilight 5:38 AM MST 7:33 PM MST
Nautical Twilight 5:07 AM MST 8:04 PM MST
Astronomical Twilight 4:34 AM MST 8:36 PM MST
Moon 8:52 AM MST (8/28) 8:42 PM MST (8/28)
Length of Visible Light 13h 55m
Length of Day
13h 02m
Tomorrow will be 2m 6s shorter.
Waxing Crescent, 12% of the Moon is Illuminated
Aug 29
Waxing Crescent
Sep 2
First Quarter
Sep 8
Full
Sep 15
Last Quarter
Sep 24
New

Yesterday's Extremes

State Highs State Lows

Community

WunderPhotos

Upload Photos

1,748,192 photos uploaded!

Nearby

Snow Depth

Station Depth Elevation
White Horse Lake 0 in 7180 ft
Snowslide Canyon 0 in 9730 ft
Workman Creek 1 in 6900 ft
Maverick Fork 0 in 9200 ft
Beaver Head 17 in 7990 ft

Earthquake Activity

City Distance Mag. Time & Date
No recent earthquake activity has been reported nearby.
Minimum magnitude displayed is 2.5.

Coastal Water Temperatures

Place Temperature
No Stations Reporting

Nearby Weather Stations